Time;durP1;ratioP1;P1;durP2;ratioP2;P2;SDS_P1;SDS_P2;PMS_P1;PMS_P2;Temp;Humidity;BMP_temperature;BMP_pressure;BME280_temperature;BME280_humidity;BME280_pressure;Samples;Min_cycle;Max_cycle;Signal;HPM_P1;HPM_P2
2023/04/26 00:01:43;;;;;;;0.10;0.10;;;17.80;78.90;;;;;;4984331;28;20435;-89
2023/04/26 00:04:08;;;;;;;0.20;0.20;;;17.80;78.90;;;;;;4945016;28;1103542;-90
2023/04/26 00:06:36;;;;;;;0.25;0.25;;;17.80;78.90;;;;;;4966592;28;20034;-89
2023/04/26 00:09:01;;;;;;;0.20;0.20;;;17.80;78.90;;;;;;4983290;28;20070;-90
2023/04/26 00:11:27;;;;;;;0.35;0.20;;;17.80;78.80;;;;;;4951974;28;20035;-89
2023/04/26 00:13:53;;;;;;;0.28;0.28;;;17.80;78.80;;;;;;4984671;28;20579;-89
2023/04/26 00:16:19;;;;;;;0.20;0.20;;;17.80;78.80;;;;;;4985122;28;20030;-89
2023/04/26 00:18:45;;;;;;;0.20;0.20;;;17.80;78.80;;;;;;4985663;28;20041;-90
2023/04/26 00:21:11;;;;;;;0.30;0.30;;;17.70;78.80;;;;;;4985901;28;20046;-90
2023/04/26 00:23:36;;;;;;;0.30;0.30;;;17.80;78.80;;;;;;4985603;28;20157;-90
2023/04/26 00:26:03;;;;;;;0.20;0.20;;;17.80;78.90;;;;;;4968435;28;20559;-89
2023/04/26 00:28:28;;;;;;;0.20;0.20;;;17.70;78.80;;;;;;4984154;28;20038;-89
2023/04/26 00:30:56;;;;;;;0.20;0.20;;;17.70;79.60;;;;;;4983993;28;20161;-90
2023/04/26 00:33:22;;;;;;;0.30;0.20;;;17.80;78.80;;;;;;4985099;28;20525;-89
2023/04/26 00:35:48;;;;;;;0.20;0.20;;;17.80;78.90;;;;;;4984525;28;20524;-90
2023/04/26 00:38:14;;;;;;;0.20;0.20;;;17.70;78.80;;;;;;4987454;28;20117;-90
2023/04/26 00:40:39;;;;;;;0.22;0.22;;;17.70;78.80;;;;;;4984958;28;20504;-89
2023/04/26 00:43:05;;;;;;;0.20;0.20;;;17.70;78.80;;;;;;4985761;28;20038;-89
2023/04/26 00:45:31;;;;;;;0.40;0.40;;;17.70;78.90;;;;;;4968232;28;21249;-89
2023/04/26 00:47:57;;;;;;;0.20;0.20;;;17.70;78.90;;;;;;4987165;28;20034;-89
2023/04/26 00:50:23;;;;;;;0.35;0.35;;;17.80;79.00;;;;;;4953032;28;20472;-90
2023/04/26 00:52:48;;;;;;;0.20;0.20;;;17.70;78.80;;;;;;4964743;28;20072;-89
2023/04/26 00:55:15;;;;;;;0.20;0.20;;;17.70;78.80;;;;;;4953214;28;20096;-90
2023/04/26 00:57:40;;;;;;;0.28;0.20;;;17.70;78.90;;;;;;4951902;28;20259;-89
2023/04/26 01:00:07;;;;;;;0.30;0.30;;;17.70;78.90;;;;;;4966873;28;20034;-89
2023/04/26 01:02:32;;;;;;;0.17;0.17;;;17.70;78.90;;;;;;4995939;28;20393;-89
2023/04/26 01:04:58;;;;;;;0.30;0.30;;;17.70;78.80;;;;;;4978196;28;20125;-90
2023/04/26 01:07:23;;;;;;;0.40;0.40;;;17.70;78.90;;;;;;4988882;28;20408;-89
2023/04/26 01:09:49;;;;;;;0.20;0.20;;;17.70;78.90;;;;;;4985148;28;20043;-90
2023/04/26 01:12:15;;;;;;;0.20;0.20;;;17.70;78.90;;;;;;4988217;28;20054;-90
2023/04/26 01:14:41;;;;;;;0.20;0.20;;;17.70;79.80;;;;;;4986951;28;20047;-90
2023/04/26 01:17:07;;;;;;;0.30;0.30;;;17.70;78.90;;;;;;5001770;28;20053;-90
2023/04/26 01:19:36;;;;;;;0.40;0.40;;;17.70;78.90;;;;;;4987604;28;20042;-88
2023/04/26 01:22:02;;;;;;;0.20;0.20;;;17.70;79.00;;;;;;4986630;28;20053;-89
2023/04/26 01:24:28;;;;;;;0.35;0.20;;;17.70;79.00;;;;;;4988877;28;20104;-89
2023/04/26 01:26:53;;;;;;;0.20;0.20;;;17.70;79.00;;;;;;4988834;28;20059;-90
2023/04/26 01:29:20;;;;;;;0.30;0.30;;;17.70;78.90;;;;;;4987202;28;20042;-89
2023/04/26 01:31:46;;;;;;;0.30;0.30;;;17.70;78.90;;;;;;4985586;28;20054;-89
2023/04/26 01:34:11;;;;;;;0.22;0.22;;;17.70;79.00;;;;;;4988701;28;20466;-89
2023/04/26 01:36:37;;;;;;;0.20;0.20;;;17.70;78.90;;;;;;4987693;28;20109;-89
2023/04/26 01:39:03;;;;;;;0.30;0.30;;;17.70;78.90;;;;;;4989306;28;20039;-89
2023/04/26 01:41:28;;;;;;;0.65;0.32;;;17.70;79.00;;;;;;4988683;28;20575;-81
2023/04/26 01:43:54;;;;;;;0.30;0.30;;;17.70;79.00;;;;;;4987300;28;20042;-89
2023/04/26 01:46:20;;;;;;;0.30;0.30;;;17.70;79.00;;;;;;4989106;28;20031;-89
2023/04/26 01:48:46;;;;;;;0.20;0.20;;;17.70;79.00;;;;;;4987826;28;20053;-89
2023/04/26 01:51:12;;;;;;;0.20;0.20;;;17.70;79.00;;;;;;4989466;28;20038;-89
2023/04/26 01:53:37;;;;;;;0.30;0.30;;;17.70;79.00;;;;;;4987525;28;20065;-89
2023/04/26 01:56:04;;;;;;;0.20;0.20;;;17.70;79.00;;;;;;4988800;28;20034;-89
2023/04/26 01:58:30;;;;;;;0.30;0.30;;;17.70;79.00;;;;;;4985569;28;20066;-88
2023/04/26 02:00:56;;;;;;;0.40;0.40;;;17.70;79.00;;;;;;4997896;28;20077;-90
2023/04/26 02:03:21;;;;;;;0.20;0.20;;;17.70;79.00;;;;;;4987412;28;20081;-90
2023/04/26 02:05:47;;;;;;;0.30;0.30;;;17.70;79.00;;;;;;4988995;28;20089;-89
2023/04/26 02:08:13;;;;;;;0.68;0.40;;;17.60;78.90;;;;;;4986641;28;20165;-89
2023/04/26 02:10:38;;;;;;;0.38;0.38;;;17.60;78.90;;;;;;4988678;28;20046;-88
2023/04/26 02:13:06;;;;;;;0.25;0.25;;;17.60;78.90;;;;;;5002146;28;20045;-89
2023/04/26 02:15:32;;;;;;;0.30;0.30;;;17.70;79.00;;;;;;4985333;28;20559;-89
2023/04/26 02:17:58;;;;;;;0.40;0.40;;;17.60;78.90;;;;;;4998301;28;20064;-89
2023/04/26 02:20:23;;;;;;;0.22;0.22;;;17.60;78.90;;;;;;5007023;28;20515;-90
2023/04/26 02:22:49;;;;;;;0.28;0.28;;;17.70;79.00;;;;;;5004896;28;20072;-90
2023/04/26 02:25:14;;;;;;;0.20;0.20;;;17.60;79.00;;;;;;4990677;28;20042;-89
2023/04/26 02:27:40;;;;;;;0.30;0.30;;;17.60;79.00;;;;;;5004658;28;20045;-89
2023/04/26 02:30:06;;;;;;;0.30;0.20;;;17.60;78.90;;;;;;4990866;28;20030;-89
2023/04/26 02:32:32;;;;;;;0.30;0.30;;;17.60;79.00;;;;;;5002679;28;20050;-89
2023/04/26 02:34:58;;;;;;;0.40;0.40;;;17.60;79.00;;;;;;5005417;28;20049;-90
2023/04/26 02:37:23;;;;;;;0.30;0.30;;;17.60;79.00;;;;;;5005637;28;20033;-90
2023/04/26 02:39:50;;;;;;;0.20;0.20;;;17.60;79.00;;;;;;5002512;28;20511;-89
2023/04/26 02:42:16;;;;;;;0.30;0.30;;;17.60;79.00;;;;;;5007967;28;20034;-89
2023/04/26 02:44:41;;;;;;;0.20;0.20;;;17.60;79.00;;;;;;5003474;28;20171;-89
2023/04/26 02:47:07;;;;;;;0.30;0.30;;;17.60;79.00;;;;;;5006826;28;20038;-89
2023/04/26 02:49:33;;;;;;;0.22;0.22;;;17.60;79.00;;;;;;5005265;28;20081;-89
2023/04/26 02:51:59;;;;;;;0.20;0.20;;;17.60;79.00;;;;;;5007053;28;20594;-90
2023/04/26 02:54:24;;;;;;;0.20;0.20;;;17.60;79.00;;;;;;5007058;28;20438;-90
2023/04/26 02:56:50;;;;;;;0.65;0.40;;;17.60;79.10;;;;;;5006429;28;20072;-90
2023/04/26 02:59:15;;;;;;;0.32;0.32;;;17.60;79.00;;;;;;5007487;28;20124;-89
2023/04/26 03:01:41;;;;;;;0.55;0.55;;;17.60;79.00;;;;;;4987705;28;20443;-89
2023/04/26 03:04:07;;;;;;;0.38;0.38;;;17.60;79.00;;;;;;5004768;28;20042;-89
2023/04/26 03:06:32;;;;;;;0.20;0.20;;;17.60;78.90;;;;;;5007016;28;20508;-90
2023/04/26 03:08:58;;;;;;;0.40;0.40;;;17.60;78.90;;;;;;5004571;28;20147;-89
2023/04/26 03:11:23;;;;;;;0.20;0.20;;;17.60;78.90;;;;;;5005647;28;20069;-89
2023/04/26 03:13:49;;;;;;;0.38;0.38;;;17.60;79.00;;;;;;5005591;28;20077;-89
2023/04/26 03:16:15;;;;;;;0.20;0.20;;;17.60;79.70;;;;;;5005835;28;20032;-90
2023/04/26 03:18:40;;;;;;;0.30;0.22;;;17.60;79.00;;;;;;5005588;28;20034;-89
2023/04/26 03:21:06;;;;;;;0.40;0.30;;;17.60;79.00;;;;;;5006606;28;20124;-89
2023/04/26 03:23:31;;;;;;;0.30;0.30;;;17.60;79.70;;;;;;5018848;28;20514;-90
2023/04/26 03:25:57;;;;;;;0.30;0.30;;;17.60;78.90;;;;;;5004960;28;20092;-90
2023/04/26 03:28:23;;;;;;;0.20;0.20;;;17.60;79.00;;;;;;5004877;28;20467;-90
2023/04/26 03:30:49;;;;;;;0.20;0.20;;;17.60;79.00;;;;;;5004949;28;20465;-89
2023/04/26 03:33:15;;;;;;;0.50;0.50;;;17.60;79.00;;;;;;5007213;28;20053;-90
2023/04/26 03:35:42;;;;;;;0.40;0.40;;;17.60;79.10;;;;;;5004898;28;20038;-89
2023/04/26 03:38:07;;;;;;;0.30;0.30;;;17.60;79.10;;;;;;4987299;28;20811;-89
2023/04/26 03:40:33;;;;;;;0.30;0.30;;;17.60;79.00;;;;;;5006088;28;20041;-89
2023/04/26 03:42:58;;;;;;;0.40;0.40;;;17.60;79.10;;;;;;5004802;28;20038;-90
2023/04/26 03:45:25;;;;;;;0.30;0.30;;;17.60;79.10;;;;;;5004036;28;20049;-90
2023/04/26 03:47:51;;;;;;;0.40;0.40;;;17.60;79.10;;;;;;5004221;28;20065;-90
2023/04/26 03:50:16;;;;;;;0.32;0.32;;;17.60;79.20;;;;;;5006768;28;20077;-90
2023/04/26 03:52:42;;;;;;;0.30;0.30;;;17.60;79.10;;;;;;5004881;28;20125;-89
2023/04/26 03:55:09;;;;;;;0.40;0.40;;;17.60;79.10;;;;;;5004435;28;20495;-89
2023/04/26 03:57:35;;;;;;;0.40;0.40;;;17.50;79.00;;;;;;5002374;28;20066;-89
2023/04/26 04:00:00;;;;;;;0.30;0.30;;;17.60;79.10;;;;;;5005907;28;20056;-90
2023/04/26 04:02:26;;;;;;;0.47;0.40;;;17.50;79.00;;;;;;4987296;28;20482;-89
2023/04/26 04:04:51;;;;;;;0.35;0.35;;;17.60;79.20;;;;;;5005458;28;20056;-90
2023/04/26 04:07:18;;;;;;;0.30;0.30;;;17.60;79.10;;;;;;5003503;28;20034;-89
2023/04/26 04:09:43;;;;;;;0.50;0.50;;;17.60;79.10;;;;;;5004407;28;20042;-88
2023/04/26 04:12:09;;;;;;;0.40;0.40;;;17.60;79.20;;;;;;5005650;28;20435;-89
2023/04/26 04:14:34;;;;;;;0.60;0.60;;;17.50;79.00;;;;;;5005585;28;20038;-89
2023/04/26 04:17:00;;;;;;;0.30;0.30;;;17.50;79.10;;;;;;5005672;28;20068;-89
2023/04/26 04:19:26;;;;;;;0.40;0.40;;;17.50;79.10;;;;;;5005510;28;20042;-90
2023/04/26 04:21:51;;;;;;;0.30;0.30;;;17.50;79.10;;;;;;5004148;28;20030;-89
2023/04/26 04:24:18;;;;;;;0.40;0.40;;;17.50;79.10;;;;;;4986767;28;20045;-90
2023/04/26 04:26:44;;;;;;;0.35;0.35;;;17.50;79.10;;;;;;5004895;28;20042;-88
2023/04/26 04:29:10;;;;;;;0.40;0.40;;;17.50;79.10;;;;;;5002691;28;20403;-89
2023/04/26 04:31:35;;;;;;;0.52;0.52;;;17.50;79.10;;;;;;5005269;28;20046;-89
2023/04/26 04:34:01;;;;;;;0.50;0.50;;;17.50;79.10;;;;;;4986230;28;20045;-89
2023/04/26 04:36:26;;;;;;;0.30;0.30;;;17.50;80.00;;;;;;5005229;28;20575;-90
2023/04/26 04:38:52;;;;;;;0.30;0.30;;;17.50;79.10;;;;;;5002355;28;20038;-89
2023/04/26 04:41:21;;;;;;;0.95;0.30;;;17.50;79.20;;;;;;4986414;28;20562;-89
2023/04/26 04:43:46;;;;;;;0.30;0.30;;;17.50;79.40;;;;;;5005444;28;20486;-89
2023/04/26 04:46:12;;;;;;;0.30;0.30;;;17.50;79.20;;;;;;5005824;28;20042;-89
2023/04/26 04:48:37;;;;;;;0.30;0.30;;;17.50;79.20;;;;;;5007797;28;20498;-89
2023/04/26 04:51:03;;;;;;;0.40;0.40;;;17.50;79.20;;;;;;5007724;28;20042;-90
2023/04/26 04:53:29;;;;;;;0.73;0.40;;;17.50;79.20;;;;;;5007259;28;20522;-90
2023/04/26 04:55:55;;;;;;;0.40;0.40;;;17.50;79.40;;;;;;5006192;28;20076;-90
2023/04/26 04:58:21;;;;;;;0.30;0.30;;;17.50;79.20;;;;;;5010315;28;20111;-89
2023/04/26 05:00:47;;;;;;;0.20;0.20;;;17.50;79.20;;;;;;5008577;28;20527;-90
2023/04/26 05:03:13;;;;;;;0.55;0.50;;;17.50;79.20;;;;;;5008875;28;20042;-89
2023/04/26 05:05:39;;;;;;;0.20;0.20;;;17.50;79.20;;;;;;5005583;28;20529;-77
2023/04/26 05:08:06;;;;;;;1.13;0.55;;;17.50;79.30;;;;;;5008907;28;20103;-77
2023/04/26 05:10:33;;;;;;;0.40;0.40;;;17.50;79.30;;;;;;5008838;28;20392;-77
2023/04/26 05:12:59;;;;;;;0.30;0.30;;;17.50;79.20;;;;;;5008457;28;20053;-77
2023/04/26 05:15:24;;;;;;;0.22;0.22;;;17.50;79.20;;;;;;5008084;28;20039;-77
2023/04/26 05:17:50;;;;;;;0.30;0.30;;;17.50;79.30;;;;;;5005309;28;20042;-77
2023/04/26 05:20:16;;;;;;;0.20;0.20;;;17.50;79.30;;;;;;5009252;28;20121;-77
2023/04/26 05:22:41;;;;;;;0.30;0.30;;;17.50;79.20;;;;;;5007358;28;21425;-77
2023/04/26 05:25:08;;;;;;;0.50;0.50;;;17.50;79.20;;;;;;4988656;28;20514;-76
2023/04/26 05:27:33;;;;;;;0.43;0.43;;;17.50;79.20;;;;;;5008063;28;20050;-76
2023/04/26 05:30:04;;;;;;;0.30;0.30;;;17.50;79.20;;;;;;5003995;28;20045;-77
2023/04/26 05:32:30;;;;;;;0.43;0.43;;;17.50;79.20;;;;;;5010567;28;20418;-76
2023/04/26 05:34:56;;;;;;;0.47;0.47;;;17.50;79.20;;;;;;5008850;28;20049;-77
2023/04/26 05:37:21;;;;;;;0.40;0.40;;;17.50;79.30;;;;;;5004765;28;20522;-76
2023/04/26 05:39:47;;;;;;;0.30;0.30;;;17.50;79.20;;;;;;5007661;28;20068;-77
2023/04/26 05:42:13;;;;;;;0.60;0.60;;;17.50;79.20;;;;;;5009000;28;20047;-77
2023/04/26 05:44:39;;;;;;;1.50;0.45;;;17.50;79.20;;;;;;4990019;28;20045;-76
2023/04/26 05:47:05;;;;;;;0.60;0.60;;;17.50;79.30;;;;;;5006790;28;20049;-77
2023/04/26 05:49:30;;;;;;;0.50;0.50;;;17.50;79.30;;;;;;5010208;28;20479;-76
2023/04/26 05:51:58;;;;;;;0.50;0.50;;;17.50;79.40;;;;;;5003851;28;20042;-77
2023/04/26 05:54:23;;;;;;;0.40;0.32;;;17.50;79.40;;;;;;5006714;28;20038;-77
2023/04/26 05:56:49;;;;;;;0.43;0.43;;;17.50;79.30;;;;;;5008801;28;20092;-77
2023/04/26 05:59:15;;;;;;;0.30;0.30;;;17.50;79.40;;;;;;5007063;28;20534;-77
2023/04/26 06:01:40;;;;;;;0.40;0.40;;;17.50;80.10;;;;;;5009381;28;20053;-76
2023/04/26 06:04:06;;;;;;;0.30;0.30;;;17.50;79.30;;;;;;5004033;28;20049;-77
2023/04/26 06:06:31;;;;;;;0.40;0.40;;;17.50;79.30;;;;;;5006570;28;20520;-77
2023/04/26 06:08:57;;;;;;;0.50;0.50;;;17.50;79.40;;;;;;5007067;28;20173;-77
2023/04/26 06:11:22;;;;;;;0.40;0.40;;;17.50;79.40;;;;;;4988427;28;20041;-77
2023/04/26 06:13:48;;;;;;;0.63;0.63;;;17.50;79.40;;;;;;5008323;28;20113;-77
2023/04/26 06:16:13;;;;;;;0.25;0.25;;;17.50;79.40;;;;;;5007129;28;20034;-77
2023/04/26 06:18:39;;;;;;;0.30;0.30;;;17.50;79.40;;;;;;5008968;28;20038;-76
2023/04/26 06:21:05;;;;;;;0.40;0.40;;;17.50;79.40;;;;;;4984612;28;20113;-77
2023/04/26 06:23:30;;;;;;;0.50;0.50;;;17.40;79.40;;;;;;5006458;28;20037;-77
2023/04/26 06:25:56;;;;;;;1.88;0.57;;;17.50;79.50;;;;;;5002026;28;20045;-77
2023/04/26 06:28:22;;;;;;;0.50;0.47;;;17.50;79.40;;;;;;5004547;28;20534;-77
2023/04/26 06:30:47;;;;;;;0.63;0.63;;;17.50;79.40;;;;;;5006190;28;20042;-77
2023/04/26 06:33:13;;;;;;;0.60;0.60;;;17.50;79.40;;;;;;5008196;28;21331;-77
2023/04/26 06:35:41;;;;;;;0.40;0.40;;;17.50;79.40;;;;;;5006084;28;20046;-77
2023/04/26 06:38:07;;;;;;;0.32;0.32;;;17.50;79.50;;;;;;5006447;28;20045;-77
2023/04/26 06:40:35;;;;;;;0.50;0.50;;;17.50;79.40;;;;;;5006697;28;20092;-77
2023/04/26 06:43:01;;;;;;;0.40;0.40;;;17.50;79.40;;;;;;5006005;28;20045;-77
2023/04/26 06:45:27;;;;;;;0.50;0.50;;;17.50;79.40;;;;;;5006778;28;20096;-77
2023/04/26 06:47:52;;;;;;;0.40;0.40;;;17.50;79.40;;;;;;5005319;28;20041;-77
2023/04/26 06:50:18;;;;;;;0.70;0.70;;;17.40;79.40;;;;;;4988479;28;20466;-76
2023/04/26 06:52:44;;;;;;;0.40;0.40;;;17.50;79.50;;;;;;5006346;28;20056;-76
2023/04/26 06:55:09;;;;;;;0.85;0.50;;;17.50;79.50;;;;;;5005993;28;20046;-77
2023/04/26 06:57:35;;;;;;;0.30;0.30;;;17.50;79.40;;;;;;5007552;28;20092;-76
2023/04/26 07:00:02;;;;;;;0.50;0.50;;;17.50;79.40;;;;;;5007190;28;20135;-77
2023/04/26 07:02:28;;;;;;;0.65;0.57;;;17.50;79.40;;;;;;5021953;28;20038;-77
2023/04/26 07:04:53;;;;;;;0.50;0.50;;;17.50;79.50;;;;;;5005898;28;20052;-76
2023/04/26 07:07:19;;;;;;;0.40;0.40;;;17.50;79.50;;;;;;5008076;28;20045;-77
2023/04/26 07:09:45;;;;;;;0.40;0.40;;;17.50;79.40;;;;;;5006118;28;20127;-76
2023/04/26 07:12:11;;;;;;;0.40;0.40;;;17.50;79.40;;;;;;5004153;28;20042;-76
2023/04/26 07:14:39;;;;;;;0.50;0.50;;;17.50;79.40;;;;;;5006184;28;20141;-77
2023/04/26 07:17:05;;;;;;;0.32;0.32;;;17.50;79.40;;;;;;5004149;28;20037;-77
2023/04/26 07:19:31;;;;;;;0.60;0.60;;;17.50;79.40;;;;;;5003758;28;20041;-77
2023/04/26 07:21:56;;;;;;;0.50;0.50;;;17.50;79.40;;;;;;5005107;28;20525;-77
2023/04/26 07:24:22;;;;;;;0.47;0.47;;;17.50;79.40;;;;;;5003455;28;20566;-76
2023/04/26 07:26:47;;;;;;;0.40;0.40;;;17.50;79.40;;;;;;5018469;28;20046;-76
2023/04/26 07:29:13;;;;;;;0.32;0.30;;;17.50;79.30;;;;;;5001643;28;20046;-77
2023/04/26 07:31:39;;;;;;;0.30;0.30;;;17.50;79.20;;;;;;5004791;28;20120;-76
2023/04/26 07:34:04;;;;;;;0.30;0.30;;;17.50;79.20;;;;;;5004073;28;20045;-77
2023/04/26 07:36:30;;;;;;;0.40;0.40;;;17.50;79.20;;;;;;5018447;28;20050;-77
2023/04/26 07:38:56;;;;;;;0.47;0.47;;;17.50;79.30;;;;;;5007644;28;20063;-76
2023/04/26 07:41:21;;;;;;;0.20;0.20;;;17.50;79.30;;;;;;5008058;28;20565;-76
2023/04/26 07:43:47;;;;;;;0.63;0.50;;;17.50;79.40;;;;;;5003388;28;20034;-77
2023/04/26 07:46:12;;;;;;;0.45;0.45;;;17.50;79.40;;;;;;5005771;28;20345;-76
2023/04/26 07:48:38;;;;;;;0.52;0.52;;;17.50;79.40;;;;;;5005294;28;20038;-76
2023/04/26 07:51:07;;;;;;;0.40;0.30;;;17.50;79.40;;;;;;5002531;28;20042;-76
2023/04/26 07:53:33;;;;;;;0.40;0.40;;;17.50;79.40;;;;;;5003595;28;20038;-76
2023/04/26 07:55:59;;;;;;;0.40;0.40;;;17.50;79.30;;;;;;5004792;28;20123;-77
2023/04/26 07:58:24;;;;;;;0.50;0.50;;;17.50;79.30;;;;;;5002320;28;20035;-76
2023/04/26 08:00:50;;;;;;;0.38;0.38;;;17.50;79.40;;;;;;4986280;28;20042;-76
2023/04/26 08:03:19;;;;;;;0.40;0.40;;;17.50;79.40;;;;;;5005910;28;20065;-77
2023/04/26 08:05:45;;;;;;;0.40;0.40;;;17.50;79.50;;;;;;5005956;28;20089;-76
2023/04/26 08:08:11;;;;;;;0.30;0.30;;;17.50;79.50;;;;;;5003632;28;21144;-77
2023/04/26 08:10:40;;;;;;;0.40;0.40;;;17.50;79.50;;;;;;5006795;28;20045;-76
2023/04/26 08:13:06;;;;;;;0.57;0.57;;;17.50;79.40;;;;;;5002932;28;20092;-77
2023/04/26 08:15:31;;;;;;;0.32;0.30;;;17.50;79.40;;;;;;5004235;28;20058;-76
2023/04/26 08:17:57;;;;;;;0.50;0.50;;;17.50;79.40;;;;;;4995392;28;20054;-77
2023/04/26 08:20:22;;;;;;;0.30;0.30;;;17.50;79.40;;;;;;4984805;28;20504;-76
2023/04/26 08:22:48;;;;;;;0.40;0.40;;;17.50;79.40;;;;;;4987449;28;20092;-76
2023/04/26 08:25:14;;;;;;;0.57;0.57;;;17.50;79.40;;;;;;4989639;28;20078;-76
2023/04/26 08:27:39;;;;;;;1.13;0.40;;;17.50;79.40;;;;;;4988166;28;20046;-77
2023/04/26 08:30:06;;;;;;;0.35;0.35;;;17.60;79.30;;;;;;4988181;28;20051;-76
2023/04/26 08:32:32;;;;;;;0.30;0.30;;;17.60;79.40;;;;;;4988134;28;20050;-76
2023/04/26 08:34:59;;;;;;;0.38;0.38;;;17.50;79.40;;;;;;4989242;28;20042;-77
2023/04/26 08:37:24;;;;;;;0.30;0.30;;;17.60;79.40;;;;;;4990334;28;20034;-77
2023/04/26 08:39:50;;;;;;;0.50;0.50;;;17.50;79.40;;;;;;4989563;28;20053;-77
2023/04/26 08:42:16;;;;;;;0.40;0.40;;;17.50;79.40;;;;;;4989566;28;20535;-76
2023/04/26 08:44:42;;;;;;;0.40;0.40;;;17.60;79.60;;;;;;4990105;28;20073;-77
2023/04/26 08:47:45;;;;;;;0.50;0.50;;;17.60;79.50;;;;;;4988476;28;20081;-77
2023/04/26 08:50:13;;;;;;;0.90;0.50;;;17.60;79.50;;;;;;4986890;28;20038;-77
2023/04/26 08:52:40;;;;;;;0.60;0.50;;;17.60;79.50;;;;;;4989167;28;20042;-77
2023/04/26 08:55:06;;;;;;;0.40;0.40;;;17.60;79.50;;;;;;4989441;28;20047;-77
2023/04/26 08:57:34;;;;;;;0.32;0.32;;;17.60;79.50;;;;;;5003797;28;20074;-77
2023/04/26 09:00:04;;;;;;;0.50;0.47;;;17.60;79.40;;;;;;4992671;28;20495;-77
2023/04/26 09:02:30;;;;;;;0.50;0.50;;;17.60;79.40;;;;;;4991886;28;20486;-76
2023/04/26 09:04:55;;;;;;;0.30;0.30;;;17.60;79.40;;;;;;4998039;28;20523;-77
2023/04/26 09:07:29;;;;;;;0.43;0.43;;;17.60;79.40;;;;;;4989533;28;20146;-77
2023/04/26 09:09:55;;;;;;;0.47;0.47;;;17.60;79.30;;;;;;4999591;28;20488;-77
2023/04/26 09:12:21;;;;;;;0.40;0.40;;;17.60;79.50;;;;;;4988257;28;20057;-77
2023/04/26 09:14:46;;;;;;;0.60;0.60;;;17.60;79.50;;;;;;4987431;28;20491;-77
2023/04/26 09:17:25;;;;;;;0.40;0.40;;;17.60;79.50;;;;;;4993172;28;20038;-77
2023/04/26 09:19:51;;;;;;;0.50;0.50;;;17.60;79.40;;;;;;4994306;28;20030;-76
2023/04/26 09:22:30;;;;;;;0.40;0.40;;;17.60;79.60;;;;;;4988572;28;20054;-77
2023/04/26 09:24:56;;;;;;;0.40;0.40;;;17.60;79.40;;;;;;4988238;28;20279;-77
2023/04/26 09:27:21;;;;;;;0.60;0.60;;;17.60;79.50;;;;;;4988388;28;20054;-77
2023/04/26 09:30:05;;;;;;;0.55;0.55;;;17.60;79.40;;;;;;4985145;28;20046;-76
2023/04/26 09:33:02;;;;;;;0.65;0.65;;;17.60;79.40;;;;;;5006249;28;20438;-77
2023/04/26 09:35:41;;;;;;;0.60;0.60;;;17.60;80.20;;;;;;4979281;28;20041;-77
2023/04/26 09:38:19;;;;;;;0.60;0.60;;;17.60;79.50;;;;;;5004087;28;20116;-77
2023/04/26 09:40:46;;;;;;;0.60;0.60;;;17.60;79.50;;;;;;5004598;28;20045;-77
2023/04/26 09:43:18;;;;;;;0.50;0.50;;;17.60;79.50;;;;;;5006720;28;20042;-77
2023/04/26 09:45:54;;;;;;;0.60;0.60;;;17.70;79.40;;;;;;5008696;28;20042;-76
2023/04/26 09:48:25;;;;;;;0.40;0.40;;;17.60;79.40;;;;;;5007407;28;20042;-76
2023/04/26 09:50:55;;;;;;;0.40;0.40;;;17.60;79.30;;;;;;5006271;28;20559;-77
2023/04/26 09:53:48;;;;;;;0.50;0.50;;;17.60;79.20;;;;;;5004043;28;20045;-77
2023/04/26 09:56:18;;;;;;;0.73;0.73;;;17.70;79.20;;;;;;5006465;28;20121;-77
2023/04/26 09:58:50;;;;;;;0.70;0.70;;;17.70;79.10;;;;;;4976308;28;20065;-76
2023/04/26 10:01:17;;;;;;;0.63;0.63;;;17.70;79.20;;;;;;5006571;28;20520;-76
2023/04/26 10:03:43;;;;;;;1.33;0.50;;;17.70;79.10;;;;;;5005915;28;20495;-77
2023/04/26 10:06:09;;;;;;;0.45;0.40;;;17.60;79.10;;;;;;5007493;28;20049;-77
2023/04/26 10:08:35;;;;;;;0.50;0.50;;;17.70;79.10;;;;;;5009436;28;21205;-76
2023/04/26 10:11:03;;;;;;;0.40;0.40;;;17.70;79.10;;;;;;5007243;28;20037;-77
2023/04/26 10:13:31;;;;;;;0.30;0.30;;;17.70;79.00;;;;;;5007140;28;20056;-77
2023/04/26 10:15:56;;;;;;;0.40;0.40;;;17.80;79.00;;;;;;5008749;28;20037;-76
2023/04/26 10:18:22;;;;;;;0.40;0.40;;;17.80;78.80;;;;;;4991471;28;20419;-77
2023/04/26 10:20:50;;;;;;;0.52;0.52;;;17.80;78.70;;;;;;5006443;28;20495;-76
2023/04/26 10:23:20;;;;;;;0.60;0.60;;;17.80;78.60;;;;;;4986589;28;20516;-77
2023/04/26 10:25:46;;;;;;;0.52;0.52;;;17.80;78.60;;;;;;4994339;28;20050;-76
2023/04/26 10:28:11;;;;;;;0.40;0.40;;;17.80;78.60;;;;;;4988573;28;20031;-76
2023/04/26 10:30:56;;;;;;;0.50;0.50;;;17.80;78.60;;;;;;4987875;28;20042;-76
2023/04/26 10:33:22;;;;;;;0.50;0.50;;;17.80;78.60;;;;;;4986305;28;20432;-76
2023/04/26 10:36:11;;;;;;;0.60;0.60;;;17.80;78.60;;;;;;4986228;28;20050;-76
2023/04/26 10:38:41;;;;;;;0.40;0.40;;;17.90;78.60;;;;;;4996832;28;20038;-76
2023/04/26 10:41:29;;;;;;;0.40;0.40;;;17.80;78.50;;;;;;4985357;28;20058;-76
2023/04/26 10:43:55;;;;;;;0.43;0.43;;;17.80;78.60;;;;;;4983505;28;20027;-76
2023/04/26 10:46:35;;;;;;;0.47;0.47;;;17.90;78.70;;;;;;4984557;28;20065;-76
2023/04/26 10:49:15;;;;;;;0.50;0.50;;;17.90;78.70;;;;;;4980824;28;20035;-77
2023/04/26 10:52:01;;;;;;;0.47;0.47;;;17.90;78.50;;;;;;4984197;28;20055;-76
2023/04/26 10:54:43;;;;;;;0.40;0.40;;;17.90;78.50;;;;;;4999678;28;20062;-76
2023/04/26 10:57:09;;;;;;;0.60;0.40;;;17.90;78.40;;;;;;4983593;28;20030;-76
2023/04/26 10:59:34;;;;;;;0.40;0.40;;;17.90;78.40;;;;;;4986079;28;20116;-76
2023/04/26 11:02:00;;;;;;;0.60;0.60;;;17.90;78.40;;;;;;4999360;28;20050;-76
2023/04/26 11:04:26;;;;;;;0.40;0.40;;;17.90;78.40;;;;;;4985360;28;20511;-88
2023/04/26 11:06:53;;;;;;;0.45;0.45;;;18.00;78.30;;;;;;4997935;28;20534;-89
2023/04/26 11:09:41;;;;;;;0.45;0.45;;;18.00;78.40;;;;;;4992284;28;20042;-89
2023/04/26 11:12:11;;;;;;;0.40;0.40;;;18.00;78.30;;;;;;4983928;28;20513;-88
2023/04/26 11:14:36;;;;;;;0.40;0.40;;;17.90;78.20;;;;;;4998475;28;20046;-89
2023/04/26 11:17:03;;;;;;;0.60;0.60;;;17.90;78.20;;;;;;5005995;28;20045;-89
2023/04/26 11:19:29;;;;;;;0.35;0.35;;;17.90;78.10;;;;;;5003254;28;20056;-89
2023/04/26 11:21:55;;;;;;;0.40;0.40;;;17.90;78.20;;;;;;5007029;28;20050;-89
2023/04/26 11:24:27;;;;;;;0.55;0.55;;;18.00;78.20;;;;;;4989968;28;20046;-89
2023/04/26 11:26:52;;;;;;;0.50;0.50;;;18.00;78.20;;;;;;5005742;28;20056;-90
2023/04/26 11:29:19;;;;;;;0.60;0.60;;;17.90;78.70;;;;;;5004315;28;20054;-89
2023/04/26 11:31:54;;;;;;;0.45;0.45;;;18.00;78.20;;;;;;5005499;28;20070;-90
2023/04/26 11:34:31;;;;;;;0.50;0.50;;;18.00;78.20;;;;;;5003045;28;20033;-89
2023/04/26 11:36:56;;;;;;;0.43;0.43;;;17.90;78.30;;;;;;5002962;28;20088;-89
2023/04/26 11:39:22;;;;;;;0.43;0.43;;;18.00;78.10;;;;;;4985608;28;20049;-89
2023/04/26 11:41:48;;;;;;;0.40;0.40;;;17.90;78.00;;;;;;4987003;28;20050;-89
2023/04/26 11:44:23;;;;;;;0.47;0.47;;;17.90;78.10;;;;;;4984223;28;20483;-89
2023/04/26 11:46:48;;;;;;;0.52;0.52;;;17.90;78.10;;;;;;4985549;28;20035;-89
2023/04/26 11:49:15;;;;;;;0.40;0.40;;;17.90;78.40;;;;;;4998389;28;20034;-89
2023/04/26 11:51:40;;;;;;;0.60;0.60;;;17.90;78.60;;;;;;4999004;28;20129;-90
2023/04/26 11:54:06;;;;;;;0.60;0.60;;;17.90;78.40;;;;;;4985993;28;20130;-89
2023/04/26 11:56:31;;;;;;;0.80;0.55;;;17.90;78.00;;;;;;4990454;28;20038;-90
2023/04/26 11:58:58;;;;;;;0.60;0.60;;;18.00;78.00;;;;;;4998931;28;20507;-89
2023/04/26 12:01:25;;;;;;;0.52;0.52;;;18.00;78.00;;;;;;4994900;28;20033;-89
2023/04/26 12:03:52;;;;;;;0.70;0.70;;;18.00;78.00;;;;;;4983205;28;20129;-89
2023/04/26 12:06:18;;;;;;;0.60;0.60;;;18.00;78.00;;;;;;4980272;28;20062;-89
2023/04/26 12:08:49;;;;;;;0.50;0.50;;;18.00;78.00;;;;;;4982705;28;20092;-89
2023/04/26 12:11:15;;;;;;;0.43;0.43;;;18.00;78.10;;;;;;4984323;28;20050;-89
2023/04/26 12:13:41;;;;;;;0.60;0.60;;;18.00;78.00;;;;;;4979418;28;20078;-90
2023/04/26 12:16:08;;;;;;;0.55;0.55;;;17.90;78.20;;;;;;4980502;28;20108;-87
2023/04/26 12:18:33;;;;;;;0.47;0.47;;;18.00;78.40;;;;;;5004276;28;20049;-89
2023/04/26 12:21:00;;;;;;;0.50;0.50;;;17.90;78.60;;;;;;4999058;28;20054;-89
2023/04/26 12:23:26;;;;;;;0.60;0.60;;;17.90;78.60;;;;;;4986272;28;20096;-90
2023/04/26 12:25:52;;;;;;;0.50;0.50;;;17.90;78.80;;;;;;4986270;28;20045;-90
2023/04/26 12:28:18;;;;;;;0.50;0.50;;;17.90;78.70;;;;;;4987563;28;20436;-89
2023/04/26 12:30:43;;;;;;;0.57;0.57;;;17.90;78.70;;;;;;4985960;28;20520;-90
2023/04/26 12:33:10;;;;;;;0.40;0.40;;;17.90;78.60;;;;;;4967454;28;20050;-90
2023/04/26 12:35:35;;;;;;;0.60;0.60;;;17.90;79.50;;;;;;4986057;28;20038;-89
2023/04/26 12:38:01;;;;;;;1.00;0.70;;;17.90;78.70;;;;;;4985036;28;20047;-89
2023/04/26 12:40:27;;;;;;;0.40;0.40;;;17.90;78.60;;;;;;4987011;28;20057;-90
2023/04/26 12:42:54;;;;;;;0.55;0.55;;;18.00;78.60;;;;;;4984627;28;20046;-89
2023/04/26 12:45:21;;;;;;;0.60;0.60;;;18.00;78.90;;;;;;4954512;28;20051;-90
2023/04/26 12:47:46;;;;;;;0.60;0.60;;;18.00;78.20;;;;;;4985702;28;20066;-89